Main page
METAR-TAF:

METAR-TAF

Airports :

Abu Musa, Iran

latitude: 25-52-33N, longitude: 055-02-01E, elevation: 7 m

Current weather observation

The report was made 1 hour and 3 minutes ago, at 08:00 UTC
Wind 4 kt from the North/Northwest
Temperature 25°C
Humidity 54%
Pressure 1016 hPa
Visibility: 5000 m
haze

METAR: OIBA 250800Z 34004KT 5000 HZ NSC 25/15 Q1016

Time: 12:33 (09:03 UTC)


TAF: missing

Weather observations and forecasts of more than 4000 airports (METAR and TAF reports).

The available stations are represented by yellow and red dots on the map.

Hover mouse over dot to see the name of the station.

Then click to see weather observations and forecasts.

To change the map : click on the green buttons with a black cross to zoom in, on the green button with a dash to zoom out, or on the green arrows for adjacent maps.


METAR-TAF: